Time;durP1;ratioP1;P1;durP2;ratioP2;P2;SDS_P1;SDS_P2;PMS_P1;PMS_P2;Temp;Humidity;BMP_temperature;BMP_pressure;BME280_temperature;BME280_humidity;BME280_pressure;Samples;Min_cycle;Max_cycle;Signal;HPM_P1;HPM_P2
2022/08/20 00:00:54;;;;;;;18.10;10.20;;;;;;;21.67;68.59;98469.45;88347;1274;24240;-72
2022/08/20 00:03:06;;;;;;;21.10;10.00;;;;;;;21.65;68.59;98463.25;88210;1274;101427;-71
2022/08/20 00:05:08;;;;;;;16.30;10.10;;;;;;;21.65;68.73;98462.85;88338;1274;24218;-69
2022/08/20 00:07:11;;;;;;;18.80;10.10;;;;;;;21.64;68.71;98459.39;88214;1274;24308;-72
2022/08/20 00:09:13;;;;;;;20.10;10.70;;;;;;;21.62;68.77;98455.89;88284;1274;101097;-72
2022/08/20 00:11:21;;;;;;;16.10;9.70;;;;;;;21.61;68.82;98478.48;88170;1274;24297;-72
2022/08/20 00:13:27;;;;;;;27.90;10.30;;;;;;;21.59;68.85;98478.77;88204;1274;22872;-72
2022/08/20 00:15:32;;;;;;;18.40;10.50;;;;;;;21.59;69.01;98454.30;88176;1274;111811;-73
2022/08/20 00:17:36;;;;;;;15.60;9.80;;;;;;;21.58;69.10;98444.13;88272;1274;22741;-73
2022/08/20 00:19:38;;;;;;;22.40;11.30;;;;;;;21.56;69.17;98455.20;88168;1274;99674;-73
2022/08/20 00:21:40;;;;;;;16.80;10.50;;;;;;;21.56;69.13;98463.09;88276;1274;22664;-71
2022/08/20 00:23:45;;;;;;;23.50;10.10;;;;;;;21.55;69.24;98454.53;88286;1274;22662;-71
2022/08/20 00:25:47;;;;;;;18.10;10.30;;;;;;;21.54;69.26;98453.55;88112;1277;98729;-72
2022/08/20 00:27:49;;;;;;;20.20;10.40;;;;;;;21.55;69.31;98462.97;88229;1274;22575;-72
2022/08/20 00:29:50;;;;;;;18.10;10.60;;;;;;;21.55;69.31;98472.09;88293;1274;22993;-70
2022/08/20 00:31:52;;;;;;;19.20;10.40;;;;;;;21.56;69.37;98472.91;88168;1274;99496;-71
2022/08/20 00:33:54;;;;;;;17.00;10.10;;;;;;;21.57;69.42;98485.52;88110;1274;22576;-71
2022/08/20 00:35:56;;;;;;;15.30;10.60;;;;;;;21.57;69.43;98486.51;88159;1274;22672;-72
2022/08/20 00:37:58;;;;;;;18.20;11.10;;;;;;;21.58;69.50;98485.39;88201;1274;99430;-73
2022/08/20 00:40:00;;;;;;;16.90;10.10;;;;;;;21.58;69.49;98487.10;88284;1274;22606;-70
2022/08/20 00:42:03;;;;;;;21.50;11.10;;;;;;;21.59;69.60;98488.79;88276;1274;25388;-73
2022/08/20 00:44:09;;;;;;;20.00;10.70;;;;;;;21.61;69.64;98489.04;88155;1274;99321;-72
2022/08/20 00:46:15;;;;;;;23.40;11.60;;;;;;;21.60;69.69;98487.13;88316;1273;22568;-72
2022/08/20 00:48:17;;;;;;;20.80;11.40;;;;;;;21.61;69.70;98480.65;88340;1272;22547;-70
2022/08/20 00:50:25;;;;;;;20.70;10.60;;;;;;;21.61;69.77;98485.59;88206;1273;99289;-72
2022/08/20 00:52:26;;;;;;;19.20;10.30;;;;;;;21.63;69.77;98484.58;88481;1274;22555;-70
2022/08/20 00:54:32;;;;;;;19.30;10.90;;;;;;;21.63;69.79;98483.88;88221;1274;22636;-72
2022/08/20 00:56:35;;;;;;;22.70;11.30;;;;;;;21.62;69.75;98481.39;88221;1274;99488;-72
2022/08/20 00:58:38;;;;;;;18.20;10.80;;;;;;;21.61;69.88;98473.65;88332;1274;24330;-72
2022/08/20 01:00:44;;;;;;;20.60;10.40;;;;;;;21.59;69.88;98468.75;88470;1274;22611;-72
2022/08/20 01:02:47;;;;;;;21.30;10.10;;;;;;;21.59;70.01;98470.08;88357;1274;99666;-73
2022/08/20 01:04:53;;;;;;;20.10;11.50;;;;;;;21.58;70.02;98470.88;88415;1274;22801;-72
2022/08/20 01:06:55;;;;;;;19.10;10.90;;;;;;;21.57;70.05;98471.18;88252;1274;22625;-72
2022/08/20 01:09:00;;;;;;;20.80;11.10;;;;;;;21.57;70.12;98467.56;88036;1275;100251;-73
2022/08/20 01:11:11;;;;;;;16.80;11.10;;;;;;;21.58;70.15;98459.11;88149;1273;22741;-71
2022/08/20 01:13:17;;;;;;;26.40;12.00;;;;;;;21.58;70.10;98451.77;88301;1273;23145;-72
2022/08/20 01:15:23;;;;;;;18.00;11.20;;;;;;;21.57;70.21;98453.14;88123;1273;99314;-72
2022/08/20 01:17:28;;;;;;;20.50;11.70;;;;;;;21.54;70.20;98463.21;88310;1274;22712;-72
2022/08/20 01:19:35;;;;;;;17.70;10.70;;;;;;;21.52;70.26;98470.09;88194;1274;22810;-70
2022/08/20 01:21:37;;;;;;;15.70;11.20;;;;;;;21.49;70.33;98470.75;88267;1273;23695;-70
2022/08/20 01:23:48;;;;;;;17.70;11.40;;;;;;;21.48;70.33;98461.05;88129;1273;22636;-71
2022/08/20 01:25:59;;;;;;;18.40;10.20;;;;;;;21.47;70.44;98457.89;88268;1274;99637;-70
2022/08/20 01:28:01;;;;;;;22.00;9.90;;;;;;;21.46;70.49;98456.85;88229;1274;22560;-70
2022/08/20 01:30:04;;;;;;;16.10;10.60;;;;;;;21.46;70.51;98460.51;88179;1273;25277;-72
2022/08/20 01:32:06;;;;;;;19.80;10.90;;;;;;;21.43;70.48;98461.68;88029;1277;99315;-71
2022/08/20 01:34:15;;;;;;;21.10;11.10;;;;;;;21.38;70.53;98465.71;88264;1274;22698;-72
2022/08/20 01:36:21;;;;;;;22.70;11.60;;;;;;;21.34;70.68;98463.84;88130;1274;25402;-72
2022/08/20 01:38:23;;;;;;;18.60;10.40;;;;;;;21.31;70.71;98460.05;88009;1276;99486;-73
2022/08/20 01:40:46;;;;;;;20.90;11.20;;;;;;;21.28;70.69;98465.29;88066;1276;22674;-72
2022/08/20 01:42:49;;;;;;;16.70;9.80;;;;;;;21.24;70.85;98463.55;88403;1273;22654;-73
2022/08/20 01:44:51;;;;;;;17.20;9.70;;;;;;;21.22;70.82;98454.68;88209;1273;99290;-70
2022/08/20 01:46:57;;;;;;;17.90;10.50;;;;;;;21.20;70.85;98449.67;88199;1274;24773;-73
2022/08/20 01:49:05;;;;;;;16.20;10.50;;;;;;;21.18;70.89;98453.61;88419;1273;24201;-72
2022/08/20 01:51:10;;;;;;;24.10;10.70;;;;;;;21.15;70.91;98457.28;88226;1273;99389;-72
2022/08/20 01:53:18;;;;;;;14.90;10.00;;;;;;;21.09;70.96;98454.52;88304;1273;22560;-71
2022/08/20 01:55:20;;;;;;;17.20;9.80;;;;;;;21.05;71.09;98457.27;88597;1273;22582;-73
2022/08/20 01:57:25;;;;;;;17.00;10.10;;;;;;;21.03;71.09;98455.36;88143;1274;99594;-71
2022/08/20 01:59:28;;;;;;;14.70;10.90;;;;;;;21.00;71.13;98452.73;88388;1273;25298;-72
2022/08/20 02:01:39;;;;;;;15.60;10.50;;;;;;;20.99;71.22;98449.33;88106;1276;23305;-72
2022/08/20 02:03:41;;;;;;;20.30;11.40;;;;;;;20.96;71.30;98448.36;88140;1275;22626;-71
2022/08/20 02:05:44;;;;;;;22.60;10.50;;;;;;;20.92;71.33;98449.41;88303;1273;22773;-70
2022/08/20 02:07:45;;;;;;;18.60;10.70;;;;;;;20.89;71.41;98452.73;88231;1276;99726;-71
2022/08/20 02:09:48;;;;;;;23.60;11.60;;;;;;;20.88;71.46;98451.81;88375;1274;23134;-72
2022/08/20 02:11:52;;;;;;;20.80;10.70;;;;;;;20.87;71.46;98456.30;88236;1274;22786;-72
2022/08/20 02:13:54;;;;;;;17.20;11.30;;;;;;;20.86;71.51;98454.98;88229;1274;99782;-74
2022/08/20 02:15:55;;;;;;;19.20;10.40;;;;;;;20.85;71.52;98449.29;88203;1275;25464;-70
2022/08/20 02:17:57;;;;;;;20.80;10.40;;;;;;;20.83;71.58;98447.11;88200;1274;22620;-72
2022/08/20 02:20:09;;;;;;;16.60;11.00;;;;;;;20.79;71.63;98443.73;88115;1274;99493;-72
2022/08/20 02:22:24;;;;;;;22.70;11.10;;;;;;;20.78;71.72;98440.89;88325;1273;24698;-72
2022/08/20 02:24:26;;;;;;;20.10;11.60;;;;;;;20.75;71.71;98442.15;88229;1273;22563;-72
2022/08/20 02:26:29;;;;;;;16.90;10.50;;;;;;;20.74;71.82;98445.48;88190;1274;101261;-73
2022/08/20 02:28:30;;;;;;;20.30;11.50;;;;;;;20.73;71.83;98454.02;88356;1273;25284;-71
2022/08/20 02:30:39;;;;;;;14.70;10.30;;;;;;;20.72;71.95;98455.88;88308;1274;25969;-70
2022/08/20 02:32:41;;;;;;;18.70;10.30;;;;;;;20.70;71.98;98453.76;88220;1274;99803;-71
2022/08/20 02:34:43;;;;;;;24.60;11.10;;;;;;;20.68;72.05;98447.15;88238;1274;22722;-71
2022/08/20 02:36:47;;;;;;;23.20;11.10;;;;;;;20.67;71.99;98443.67;88144;1275;22551;-73
2022/08/20 02:38:49;;;;;;;18.40;10.40;;;;;;;20.65;72.04;98437.73;88262;1271;99611;-70
2022/08/20 02:40:51;;;;;;;20.00;10.90;;;;;;;20.64;72.04;98439.11;88269;1274;23161;-73
2022/08/20 02:42:54;;;;;;;29.60;10.40;;;;;;;20.63;72.15;98445.30;88326;1271;26708;-72
2022/08/20 02:44:57;;;;;;;20.80;11.50;;;;;;;20.60;72.16;98451.27;88204;1274;99817;-69
2022/08/20 02:46:59;;;;;;;17.40;9.50;;;;;;;20.57;72.18;98453.65;88363;1274;22558;-71
2022/08/20 02:49:01;;;;;;;17.60;10.20;;;;;;;20.55;72.30;98453.79;88319;1274;22602;-72
2022/08/20 02:51:05;;;;;;;24.60;10.00;;;;;;;20.52;72.36;98455.66;88024;1276;99363;-71
2022/08/20 02:53:07;;;;;;;14.80;10.40;;;;;;;20.50;72.37;98451.77;88273;1274;22589;-71
2022/08/20 02:55:10;;;;;;;17.60;11.40;;;;;;;20.48;72.46;98453.38;88146;1275;22873;-72
2022/08/20 02:57:14;;;;;;;28.90;11.30;;;;;;;20.46;72.43;98451.02;88074;1274;99469;-72
2022/08/20 02:59:17;;;;;;;27.00;11.50;;;;;;;20.44;72.56;98441.59;88373;1274;22786;-72
2022/08/20 03:01:19;;;;;;;33.30;11.30;;;;;;;20.43;72.64;98441.02;88300;1274;26696;-72
2022/08/20 03:03:21;;;;;;;21.40;10.90;;;;;;;20.42;72.67;98434.17;88180;1274;99506;-72
2022/08/20 03:05:22;;;;;;;30.50;12.20;;;;;;;20.39;72.66;98429.80;88290;1274;22647;-71
2022/08/20 03:07:24;;;;;;;33.60;11.20;;;;;;;20.38;72.75;98420.99;88303;1271;23460;-72
2022/08/20 03:09:26;;;;;;;47.80;12.00;;;;;;;20.37;72.79;98418.36;88169;1273;99318;-70
2022/08/20 03:11:28;;;;;;;33.50;10.80;;;;;;;20.37;72.72;98410.02;88342;1271;22545;-72
2022/08/20 03:13:30;;;;;;;20.30;11.10;;;;;;;20.36;72.82;98403.69;88213;1274;22561;-72
2022/08/20 03:15:33;;;;;;;25.30;12.00;;;;;;;20.33;72.78;98404.30;88480;1274;99157;-70
2022/08/20 03:17:36;;;;;;;33.00;11.30;;;;;;;20.32;72.97;98397.05;87093;1275;1618916;-72
2022/08/20 03:19:37;;;;;;;31.50;12.50;;;;;;;20.31;72.98;98395.64;88096;1275;99804;-71
2022/08/20 03:21:39;;;;;;;28.30;12.30;;;;;;;20.29;73.05;98395.61;88175;1274;24398;-72
2022/08/20 03:23:42;;;;;;;34.20;12.80;;;;;;;20.28;73.17;98391.23;88214;1274;24004;-73
2022/08/20 03:25:45;;;;;;;35.70;12.60;;;;;;;20.28;73.16;98386.67;88158;1274;99674;-72
2022/08/20 03:27:47;;;;;;;19.80;12.10;;;;;;;20.23;73.18;98384.89;88140;1274;22635;-70
2022/08/20 03:29:48;;;;;;;33.30;13.10;;;;;;;20.21;73.24;98382.34;88260;1274;22648;-72
2022/08/20 03:31:50;;;;;;;25.40;12.70;;;;;;;20.18;73.30;98380.95;88078;1275;99610;-70
2022/08/20 03:33:51;;;;;;;21.50;13.50;;;;;;;20.17;73.31;98385.89;88264;1274;24141;-73
2022/08/20 03:35:53;;;;;;;21.40;12.20;;;;;;;20.15;73.35;98390.67;88144;1274;25411;-70
2022/08/20 03:37:56;;;;;;;28.70;13.60;;;;;;;20.14;73.37;98392.48;88253;1273;99526;-72
2022/08/20 03:39:58;;;;;;;24.80;11.50;;;;;;;20.11;73.35;98396.08;88167;1274;22688;-72
2022/08/20 03:42:01;;;;;;;17.60;11.80;;;;;;;20.10;73.48;98400.83;88434;1271;23288;-73
2022/08/20 03:44:05;;;;;;;26.10;11.90;;;;;;;20.09;73.53;98401.81;88123;1274;99440;-72
2022/08/20 03:46:07;;;;;;;30.40;11.90;;;;;;;20.07;73.60;98402.50;88437;1274;23233;-72
2022/08/20 03:48:14;;;;;;;21.20;11.60;;;;;;;20.05;73.43;98405.55;88363;1273;26672;-72
2022/08/20 03:50:19;;;;;;;21.90;11.20;;;;;;;20.04;73.61;98406.90;88176;1274;99756;-73
2022/08/20 03:52:20;;;;;;;19.00;11.20;;;;;;;20.04;73.62;98408.77;88302;1274;22545;-72
2022/08/20 03:54:22;;;;;;;16.00;11.50;;;;;;;20.05;73.75;98403.14;88322;1274;24301;-74
2022/08/20 03:56:25;;;;;;;29.20;11.20;;;;;;;20.06;73.71;98403.69;88307;1274;99465;-71
2022/08/20 03:58:27;;;;;;;22.40;12.60;;;;;;;20.08;73.67;98399.95;88277;1274;25473;-72
2022/08/20 04:00:41;;;;;;;20.50;11.50;;;;;;;20.10;73.84;98398.02;88127;1274;23502;-73
2022/08/20 04:02:42;;;;;;;28.80;10.90;;;;;;;20.10;73.82;98396.38;88126;1274;98286;-72
2022/08/20 04:04:44;;;;;;;16.90;11.30;;;;;;;20.10;73.76;98401.95;88215;1274;23490;-72
2022/08/20 04:06:46;;;;;;;23.30;11.60;;;;;;;20.11;73.83;98412.50;88265;1274;24374;-73
2022/08/20 04:08:47;;;;;;;30.60;12.20;;;;;;;20.13;73.89;98417.69;88143;1274;99521;-73
2022/08/20 04:10:50;;;;;;;15.80;11.00;;;;;;;20.14;73.98;98422.58;88319;1271;22721;-71
2022/08/20 04:12:51;;;;;;;21.50;11.10;;;;;;;20.15;74.04;98427.80;88208;1274;22583;-72
2022/08/20 04:14:53;;;;;;;35.30;10.70;;;;;;;20.16;73.99;98429.47;88162;1274;99769;-75
2022/08/20 04:16:55;;;;;;;20.10;12.10;;;;;;;20.16;73.98;98426.98;88227;1274;24183;-70
2022/08/20 04:18:57;;;;;;;23.40;10.60;;;;;;;20.15;74.07;98429.21;88182;1274;23952;-71
2022/08/20 04:20:58;;;;;;;23.80;11.20;;;;;;;20.15;74.13;98432.23;88152;1274;99350;-73
2022/08/20 04:23:00;;;;;;;32.90;11.70;;;;;;;20.16;74.16;98435.00;88301;1274;25318;-73
2022/08/20 04:25:04;;;;;;;25.20;11.10;;;;;;;20.17;74.10;98434.73;88340;1274;22716;-72
2022/08/20 04:27:07;;;;;;;27.50;11.70;;;;;;;20.18;74.19;98432.73;88154;1274;99908;-70
2022/08/20 04:29:09;;;;;;;19.20;12.00;;;;;;;20.20;74.26;98435.73;88342;1271;22716;-72
2022/08/20 04:31:12;;;;;;;18.20;10.90;;;;;;;20.22;74.30;98436.27;88291;1271;22596;-73
2022/08/20 04:33:15;;;;;;;17.50;11.40;;;;;;;20.23;74.29;98431.88;88334;1271;99457;-72
2022/08/20 04:35:17;;;;;;;19.40;11.60;;;;;;;20.25;74.38;98430.94;88305;1274;24279;-72
2022/08/20 04:37:21;;;;;;;21.60;11.50;;;;;;;20.29;74.32;98430.27;88348;1274;22593;-73
2022/08/20 04:39:22;;;;;;;27.10;11.50;;;;;;;20.33;74.34;98433.96;89788;1271;99679;-71
2022/08/20 04:41:24;;;;;;;27.10;11.70;;;;;;;20.36;74.39;98433.27;88174;1274;22659;-73
2022/08/20 04:43:32;;;;;;;22.80;11.40;;;;;;;20.38;74.40;98429.84;88315;1274;22708;-72
2022/08/20 04:45:34;;;;;;;17.90;11.30;;;;;;;20.39;74.44;98426.94;88115;1274;99015;-71
2022/08/20 04:47:35;;;;;;;20.00;11.70;;;;;;;20.39;74.42;98419.61;88118;1275;22875;-72
2022/08/20 04:49:37;;;;;;;18.30;10.20;;;;;;;20.36;74.39;98416.88;88028;1274;99980;-73
2022/08/20 04:51:39;;;;;;;15.00;9.90;;;;;;;20.33;74.41;98404.89;88288;1274;25985;-71
2022/08/20 04:53:41;;;;;;;15.30;10.00;;;;;;;20.31;74.47;98400.25;88236;1274;22541;-72
2022/08/20 04:55:45;;;;;;;17.80;9.90;;;;;;;20.28;74.37;98393.63;88171;1274;100027;-71
2022/08/20 04:57:46;;;;;;;15.50;10.10;;;;;;;20.25;74.51;98389.55;88270;1274;22655;-72
2022/08/20 04:59:48;;;;;;;17.90;10.40;;;;;;;20.24;74.59;98389.81;88256;1274;22715;-71
2022/08/20 05:01:50;;;;;;;18.70;11.10;;;;;;;20.24;74.59;98386.42;88187;1274;101663;-71
2022/08/20 05:03:53;;;;;;;22.80;10.50;;;;;;;20.24;74.58;98382.83;88154;1274;25418;-71
2022/08/20 05:05:56;;;;;;;24.90;11.20;;;;;;;20.25;74.63;98383.96;88186;1274;25480;-73
2022/08/20 05:07:58;;;;;;;24.80;10.40;;;;;;;20.26;74.69;98384.64;88312;1273;99487;-72
2022/08/20 05:10:04;;;;;;;18.20;10.20;;;;;;;20.27;74.77;98378.36;88279;1274;22599;-72
2022/08/20 05:12:06;;;;;;;24.30;11.30;;;;;;;20.29;74.71;98379.73;88358;1274;24114;-71
2022/08/20 05:14:07;;;;;;;19.90;10.90;;;;;;;20.33;74.75;98378.13;88116;1274;99996;-72
2022/08/20 05:16:09;;;;;;;25.60;10.80;;;;;;;20.36;74.78;98381.77;88244;1273;23565;-73
2022/08/20 05:18:11;;;;;;;20.50;9.90;;;;;;;20.40;74.71;98382.09;88175;1273;25250;-73
2022/08/20 05:20:17;;;;;;;21.40;10.30;;;;;;;20.44;74.68;98384.46;88189;1274;99172;-72
2022/08/20 05:22:19;;;;;;;23.40;10.70;;;;;;;20.50;74.74;98379.84;88343;1274;22860;-71
2022/08/20 05:24:21;;;;;;;16.70;10.50;;;;;;;20.54;74.70;98380.09;88292;1274;23414;-73
2022/08/20 05:26:25;;;;;;;19.30;11.80;;;;;;;20.57;74.72;98379.21;88142;1274;99592;-73
2022/08/20 05:28:31;;;;;;;18.40;9.90;;;;;;;20.62;74.71;98375.27;88195;1274;22617;-72
2022/08/20 05:30:33;;;;;;;20.80;10.80;;;;;;;20.67;74.74;98376.94;88324;1271;23174;-72
2022/08/20 05:32:36;;;;;;;23.50;9.80;;;;;;;20.72;74.76;98372.68;88240;1274;99712;-72
2022/08/20 05:34:38;;;;;;;23.20;10.50;;;;;;;20.79;74.75;98374.42;88674;1274;25412;-74
2022/08/20 05:36:42;;;;;;;20.90;11.40;;;;;;;20.87;74.75;98379.52;88236;1274;22563;-74
2022/08/20 05:38:44;;;;;;;29.20;10.60;;;;;;;20.96;74.77;98381.55;88158;1274;99951;-72
2022/08/20 05:40:47;;;;;;;24.40;10.40;;;;;;;21.03;74.76;98380.24;88168;1273;22718;-73
2022/08/20 05:42:50;;;;;;;17.30;9.90;;;;;;;21.12;74.71;98378.86;88245;1274;22691;-72
2022/08/20 05:44:51;;;;;;;20.20;9.90;;;;;;;21.20;74.65;98370.91;88068;1274;99367;-73
2022/08/20 05:46:53;;;;;;;18.80;10.30;;;;;;;21.25;74.68;98365.16;88096;1275;22599;-72
2022/08/20 05:48:55;;;;;;;19.90;9.30;;;;;;;21.33;74.77;98354.45;88063;1276;25575;-72
2022/08/20 05:50:57;;;;;;;25.10;10.70;;;;;;;21.41;74.78;98343.75;88033;1274;100087;-73
2022/08/20 05:53:00;;;;;;;12.10;9.20;;;;;;;21.50;74.77;98344.04;88055;1277;25752;-73
2022/08/20 05:55:03;;;;;;;18.70;8.70;;;;;;;21.59;74.65;98342.96;88094;1274;22680;-71
2022/08/20 05:57:06;;;;;;;13.90;8.70;;;;;;;21.66;74.42;98347.42;88209;1274;99323;-72
2022/08/20 05:59:08;;;;;;;17.50;8.30;;;;;;;21.73;74.33;98350.77;88179;1274;22578;-73
2022/08/20 06:01:10;;;;;;;15.00;8.50;;;;;;;21.82;74.21;98354.13;88155;1274;22535;-73
2022/08/20 06:05:33;;;;;;;15.00;8.20;;;;;;;22.00;74.00;98367.01;88137;1274;25493;-72
2022/08/20 06:07:34;;;;;;;23.10;8.30;;;;;;;22.08;73.78;98373.11;88065;1274;22568;-74
2022/08/20 06:09:36;;;;;;;19.20;8.60;;;;;;;22.16;73.68;98370.13;88288;1271;99471;-73
2022/08/20 06:11:38;;;;;;;18.40;8.40;;;;;;;22.24;73.57;98373.20;88236;1271;22584;-73
2022/08/20 06:13:39;;;;;;;14.70;8.10;;;;;;;22.35;73.58;98372.64;88059;1274;99372;-73
2022/08/20 06:15:42;;;;;;;21.70;7.80;;;;;;;22.45;73.58;98379.52;88312;1271;22556;-71
2022/08/20 06:17:44;;;;;;;11.90;7.90;;;;;;;22.54;73.30;98376.64;88100;1275;22559;-70
2022/08/20 06:19:46;;;;;;;13.00;7.90;;;;;;;22.60;73.25;98377.93;88549;1273;100912;-73
2022/08/20 06:21:48;;;;;;;21.20;8.60;;;;;;;22.67;73.04;98383.19;88570;1274;25255;-73
2022/08/20 06:23:50;;;;;;;16.00;7.50;;;;;;;22.72;72.87;98386.88;88418;1274;25396;-72
2022/08/20 06:25:51;;;;;;;26.00;8.40;;;;;;;22.76;72.78;98388.47;88604;1273;99670;-73
2022/08/20 06:27:53;;;;;;;13.20;7.20;;;;;;;22.79;72.61;98395.09;88684;1274;23348;-73
2022/08/20 06:29:55;;;;;;;24.50;8.10;;;;;;;22.81;72.51;98397.52;88696;1274;25541;-72
2022/08/20 06:31:59;;;;;;;27.90;8.10;;;;;;;22.84;72.26;98400.96;88765;1274;100222;-70
2022/08/20 06:34:01;;;;;;;14.30;8.20;;;;;;;22.88;72.30;98405.27;88775;1274;22568;-71
2022/08/20 06:36:03;;;;;;;14.20;7.80;;;;;;;22.91;72.34;98410.61;88433;1274;23309;-73
2022/08/20 06:38:10;;;;;;;19.30;8.30;;;;;;;22.93;72.41;98413.66;88559;1271;99265;-70
2022/08/20 06:40:24;;;;;;;11.30;7.10;;;;;;;22.96;72.22;98417.23;88627;1274;23373;-73
2022/08/20 06:42:25;;;;;;;18.10;8.10;;;;;;;23.00;71.99;98420.92;88466;1274;22562;-76
2022/08/20 06:44:27;;;;;;;24.20;7.80;;;;;;;23.05;71.78;98422.40;88425;1275;99651;-72
2022/08/20 06:46:29;;;;;;;14.60;7.50;;;;;;;23.10;71.85;98424.49;88636;1271;22559;-73
2022/08/20 06:48:31;;;;;;;16.70;8.10;;;;;;;23.16;71.91;98420.19;88604;1274;25222;-71
2022/08/20 06:50:38;;;;;;;19.70;8.30;;;;;;;23.22;71.70;98420.75;88363;1274;98285;-72
2022/08/20 06:52:40;;;;;;;23.90;7.30;;;;;;;23.28;71.79;98422.40;88968;1274;22573;-73
2022/08/20 06:54:44;;;;;;;16.00;7.60;;;;;;;23.33;71.75;98424.20;88512;1274;22737;-74
2022/08/20 06:56:48;;;;;;;20.80;8.60;;;;;;;23.38;71.63;98425.23;88138;1274;99465;-74
2022/08/20 06:58:50;;;;;;;12.50;8.40;;;;;;;23.43;71.62;98425.23;88053;1276;23133;-74
2022/08/20 07:00:52;;;;;;;17.30;7.80;;;;;;;23.48;71.55;98420.23;88149;1274;22798;-72
2022/08/20 07:02:54;;;;;;;15.00;8.30;;;;;;;23.54;71.41;98416.02;87925;1276;101190;-73
2022/08/20 07:04:55;;;;;;;17.60;7.70;;;;;;;23.58;71.29;98411.91;88093;1276;22669;-71
2022/08/20 07:06:57;;;;;;;25.40;7.90;;;;;;;23.61;71.05;98409.10;88194;1274;22735;-73
2022/08/20 07:08:59;;;;;;;16.20;7.80;;;;;;;23.63;71.24;98413.58;88113;1273;99270;-70
2022/08/20 07:11:01;;;;;;;18.20;8.20;;;;;;;23.64;70.93;98416.63;88012;1276;25250;-72
2022/08/20 07:13:02;;;;;;;18.40;8.90;;;;;;;23.66;70.97;98415.95;88090;1274;25401;-73
2022/08/20 07:15:06;;;;;;;22.70;7.80;;;;;;;23.69;70.75;98413.46;88041;1274;99289;-73
2022/08/20 07:17:10;;;;;;;13.00;7.90;;;;;;;23.71;70.81;98413.95;88488;1273;25544;-72
2022/08/20 07:19:12;;;;;;;17.10;7.30;;;;;;;23.72;70.73;98411.00;88242;1273;22673;-70
2022/08/20 07:21:16;;;;;;;17.30;7.80;;;;;;;23.72;70.63;98404.98;88201;1274;99304;-74
2022/08/20 07:23:17;;;;;;;24.90;7.40;;;;;;;23.71;70.47;98402.92;88251;1274;26680;-73
2022/08/20 07:25:21;;;;;;;17.50;8.10;;;;;;;23.74;70.68;98400.89;88112;1276;22712;-74
2022/08/20 07:27:22;;;;;;;14.00;7.50;;;;;;;23.75;70.53;98396.25;88205;1274;99345;-71
2022/08/20 07:32:33;;;;;;;37.80;8.70;;;;;;;23.79;70.56;98394.92;88281;1274;24910;-72
2022/08/20 07:34:07;;;;;;;21.60;8.50;;;;;;;23.85;70.44;98405.91;88279;1274;22551;-71
2022/08/20 07:36:10;;;;;;;20.80;9.20;;;;;;;23.86;70.45;98408.67;88122;1275;22630;-72
2022/08/20 07:38:23;;;;;;;15.80;8.00;;;;;;;23.90;70.54;98412.14;88022;1277;99620;-71
2022/08/20 07:40:32;;;;;;;15.70;7.40;;;;;;;23.95;70.54;98412.09;88350;1274;22580;-72
2022/08/20 07:42:35;;;;;;;11.50;8.00;;;;;;;24.00;70.33;98407.10;88134;1275;23424;-73
2022/08/20 07:44:37;;;;;;;24.30;8.00;;;;;;;24.05;70.01;98408.46;88071;1277;99811;-73
2022/08/20 07:46:39;;;;;;;17.20;7.90;;;;;;;24.12;69.79;98405.56;88171;1274;25556;-72
2022/08/20 07:48:45;;;;;;;23.10;8.40;;;;;;;24.16;69.77;98403.84;88184;1274;25379;-72
2022/08/20 07:50:48;;;;;;;19.00;8.40;;;;;;;24.23;69.78;98397.13;88226;1274;99805;-72
2022/08/20 07:52:51;;;;;;;25.70;8.30;;;;;;;24.31;69.74;98395.35;88231;1273;25296;-74
2022/08/20 07:54:53;;;;;;;19.80;7.90;;;;;;;24.38;69.62;98394.00;88300;1274;24852;-72
2022/08/20 07:56:55;;;;;;;20.80;8.70;;;;;;;24.46;69.59;98391.42;88130;1275;99218;-73
2022/08/20 07:58:58;;;;;;;18.60;7.90;;;;;;;24.57;69.51;98386.98;88101;1275;22796;-71
2022/08/20 08:01:00;;;;;;;14.10;8.10;;;;;;;24.62;69.27;98382.39;88186;1276;22706;-72
2022/08/20 08:03:03;;;;;;;16.70;7.70;;;;;;;24.67;69.20;98378.16;88153;1274;99348;-72
2022/08/20 08:05:05;;;;;;;21.70;8.80;;;;;;;24.71;69.12;98374.45;88228;1274;26683;-72
2022/08/20 08:07:07;;;;;;;20.40;8.60;;;;;;;24.78;69.17;98371.56;88071;1276;25409;-73
2022/08/20 08:09:12;;;;;;;22.00;8.60;;;;;;;24.90;69.20;98372.89;87986;1277;99203;-73
2022/08/20 08:11:14;;;;;;;14.30;8.20;;;;;;;25.01;68.90;98370.36;88297;1274;23984;-73
2022/08/20 08:13:16;;;;;;;19.00;8.30;;;;;;;25.08;68.55;98369.98;88100;1274;24603;-74
2022/08/20 08:15:23;;;;;;;21.00;8.10;;;;;;;25.17;68.41;98372.08;87964;1276;99322;-73
2022/08/20 08:17:25;;;;;;;18.00;8.90;;;;;;;25.24;68.54;98360.63;88456;1274;25637;-73
2022/08/20 08:19:36;;;;;;;14.30;8.20;;;;;;;25.43;68.35;98368.45;88276;1274;22576;-72
2022/08/20 08:21:38;;;;;;;14.90;8.10;;;;;;;25.52;67.81;98364.89;88009;1277;98962;-74
2022/08/20 08:23:43;;;;;;;18.00;7.90;;;;;;;25.57;67.61;98363.59;88187;1274;23498;-72
2022/08/20 08:25:47;;;;;;;14.80;8.00;;;;;;;25.63;67.10;98366.54;87945;1274;99565;-72
2022/08/20 08:27:48;;;;;;;30.10;7.40;;;;;;;25.65;67.13;98363.98;88224;1274;24094;-73
2022/08/20 08:29:50;;;;;;;19.00;7.50;;;;;;;25.72;67.34;98361.96;88117;1275;25463;-71
2022/08/20 08:31:51;;;;;;;14.90;7.40;;;;;;;25.80;67.24;98362.58;88215;1271;99496;-72
2022/08/20 08:33:54;;;;;;;16.20;7.90;;;;;;;25.78;67.09;98363.34;88061;1274;22553;-72
2022/08/20 08:36:04;;;;;;;13.80;7.80;;;;;;;25.79;67.03;98364.87;88202;1274;22602;-73
2022/08/20 08:38:05;;;;;;;14.10;8.80;;;;;;;25.82;66.98;98366.30;88023;1274;100696;-72
2022/08/20 08:40:10;;;;;;;12.30;8.00;;;;;;;25.90;67.10;98366.54;88326;1271;23971;-72
2022/08/20 08:42:25;;;;;;;19.20;8.20;;;;;;;26.02;67.04;98360.27;88454;1274;22981;-72
2022/08/20 08:44:37;;;;;;;17.00;8.00;;;;;;;26.18;66.96;98359.17;88307;1276;99525;-73
2022/08/20 08:46:42;;;;;;;17.70;7.80;;;;;;;26.36;66.86;98358.80;88281;1274;22569;-72
2022/08/20 08:48:47;;;;;;;17.00;7.80;;;;;;;26.40;66.43;98359.14;88186;1274;26379;-72
2022/08/20 08:50:51;;;;;;;30.70;8.30;;;;;;;26.42;66.36;98359.56;88631;1274;99141;-74
2022/08/20 08:52:59;;;;;;;14.80;7.80;;;;;;;26.46;65.87;98356.11;88440;1271;22560;-73
2022/08/20 08:55:04;;;;;;;15.40;7.60;;;;;;;26.50;66.04;98357.65;88614;1274;22740;-72
2022/08/20 08:57:08;;;;;;;16.30;7.70;;;;;;;26.54;65.91;98360.36;88236;1273;99346;-71
2022/08/20 08:59:10;;;;;;;14.30;8.00;;;;;;;26.64;65.88;98359.33;88223;1275;22708;-72
2022/08/20 09:01:16;;;;;;;27.20;7.50;;;;;;;26.76;65.61;98356.29;88286;1274;25461;-72
2022/08/20 09:03:28;;;;;;;19.60;7.50;;;;;;;26.89;65.55;98362.73;88289;1271;99120;-72
2022/08/20 09:05:38;;;;;;;18.50;7.90;;;;;;;26.96;65.23;98360.88;88220;1277;24219;-72
2022/08/20 09:07:46;;;;;;;19.40;7.90;;;;;;;26.99;65.13;98358.40;88294;1271;99334;-72
2022/08/20 09:09:48;;;;;;;12.10;7.60;;;;;;;27.03;64.99;98352.65;88200;1277;22939;-73
2022/08/20 09:11:54;;;;;;;9.60;7.40;;;;;;;27.06;65.10;98349.60;88390;1271;24390;-72
2022/08/20 09:13:56;;;;;;;17.00;7.60;;;;;;;27.15;65.16;98343.95;88407;1274;99488;-74
2022/08/20 09:15:58;;;;;;;28.30;7.90;;;;;;;27.25;64.88;98338.13;88374;1274;22771;-72
2022/08/20 09:18:00;;;;;;;17.20;7.20;;;;;;;27.36;64.71;98336.93;88358;1274;26676;-71
2022/08/20 09:20:03;;;;;;;24.50;7.20;;;;;;;27.47;64.13;98332.60;88099;1274;99303;-73
2022/08/20 09:22:10;;;;;;;21.40;7.50;;;;;;;27.54;63.96;98332.94;88472;1271;23157;-71
2022/08/20 09:24:12;;;;;;;16.50;7.10;;;;;;;27.64;64.04;98334.40;88368;1277;22577;-73
2022/08/20 09:26:13;;;;;;;18.30;7.00;;;;;;;27.75;64.04;98336.81;88204;1273;100730;-72
2022/08/20 09:28:15;;;;;;;30.00;7.20;;;;;;;27.88;63.90;98339.27;88263;1274;22600;-74
2022/08/20 09:30:17;;;;;;;20.90;7.00;;;;;;;28.02;63.64;98340.13;88200;1275;22583;-73
2022/08/20 09:32:21;;;;;;;11.90;6.40;;;;;;;28.14;63.25;98340.70;88180;1277;99248;-74
2022/08/20 09:34:23;;;;;;;17.10;6.40;;;;;;;28.16;62.73;98342.13;88521;1275;26651;-72